sensor_id;sensor_type;location;lat;lon;timestamp;temperature;humidity
2957;DHT22;1488;51.548;7.222;2023-04-24T00:00:21;21.70;72.40
2957;DHT22;1488;51.548;7.222;2023-04-24T00:02:48;21.60;72.20
2957;DHT22;1488;51.548;7.222;2023-04-24T00:05:16;21.60;72.30
2957;DHT22;1488;51.548;7.222;2023-04-24T00:07:44;21.60;72.20
2957;DHT22;1488;51.548;7.222;2023-04-24T00:10:12;21.60;72.30
2957;DHT22;1488;51.548;7.222;2023-04-24T00:12:39;21.60;72.20
2957;DHT22;1488;51.548;7.222;2023-04-24T00:15:07;21.60;72.30
2957;DHT22;1488;51.548;7.222;2023-04-24T00:17:34;21.60;72.30
2957;DHT22;1488;51.548;7.222;2023-04-24T00:20:01;21.70;72.30
2957;DHT22;1488;51.548;7.222;2023-04-24T00:22:31;21.60;72.30
2957;DHT22;1488;51.548;7.222;2023-04-24T00:24:58;21.60;72.30
2957;DHT22;1488;51.548;7.222;2023-04-24T00:27:26;21.60;72.20
2957;DHT22;1488;51.548;7.222;2023-04-24T00:29:53;21.60;72.20
2957;DHT22;1488;51.548;7.222;2023-04-24T00:32:20;21.60;72.30
2957;DHT22;1488;51.548;7.222;2023-04-24T00:34:47;21.60;72.20
2957;DHT22;1488;51.548;7.222;2023-04-24T00:37:14;21.60;72.20
2957;DHT22;1488;51.548;7.222;2023-04-24T00:39:41;21.60;72.20
2957;DHT22;1488;51.548;7.222;2023-04-24T00:42:08;21.60;72.20
2957;DHT22;1488;51.548;7.222;2023-04-24T00:44:37;21.60;72.10
2957;DHT22;1488;51.548;7.222;2023-04-24T00:47:04;21.70;72.20
2957;DHT22;1488;51.548;7.222;2023-04-24T00:49:30;21.60;72.20
2957;DHT22;1488;51.548;7.222;2023-04-24T00:51:57;21.60;72.10
2957;DHT22;1488;51.548;7.222;2023-04-24T00:54:25;21.60;72.10
2957;DHT22;1488;51.548;7.222;2023-04-24T00:56:51;21.60;72.00
2957;DHT22;1488;51.548;7.222;2023-04-24T00:59:18;21.60;72.10
2957;DHT22;1488;51.548;7.222;2023-04-24T01:01:47;21.60;72.10
2957;DHT22;1488;51.548;7.222;2023-04-24T01:04:14;21.60;72.00
2957;DHT22;1488;51.548;7.222;2023-04-24T01:06:41;21.50;71.90
2957;DHT22;1488;51.548;7.222;2023-04-24T01:09:10;21.60;72.10
2957;DHT22;1488;51.548;7.222;2023-04-24T01:11:38;21.50;72.00
2957;DHT22;1488;51.548;7.222;2023-04-24T01:14:07;21.60;72.00
2957;DHT22;1488;51.548;7.222;2023-04-24T01:16:34;21.50;71.80
2957;DHT22;1488;51.548;7.222;2023-04-24T01:19:02;21.50;71.90
2957;DHT22;1488;51.548;7.222;2023-04-24T01:21:30;21.60;72.00
2957;DHT22;1488;51.548;7.222;2023-04-24T01:24:02;21.50;71.90
2957;DHT22;1488;51.548;7.222;2023-04-24T01:26:29;21.50;71.80
2957;DHT22;1488;51.548;7.222;2023-04-24T01:28:56;21.70;72.00
2957;DHT22;1488;51.548;7.222;2023-04-24T01:31:23;21.50;71.90
2957;DHT22;1488;51.548;7.222;2023-04-24T01:33:51;21.50;71.90
2957;DHT22;1488;51.548;7.222;2023-04-24T01:36:18;21.50;71.90
2957;DHT22;1488;51.548;7.222;2023-04-24T01:38:45;21.50;71.80
2957;DHT22;1488;51.548;7.222;2023-04-24T01:41:14;21.50;71.80
2957;DHT22;1488;51.548;7.222;2023-04-24T01:43:40;21.50;71.80
2957;DHT22;1488;51.548;7.222;2023-04-24T01:46:07;21.50;71.90
2957;DHT22;1488;51.548;7.222;2023-04-24T01:48:35;21.50;71.80
2957;DHT22;1488;51.548;7.222;2023-04-24T01:51:02;21.50;71.80
2957;DHT22;1488;51.548;7.222;2023-04-24T01:53:29;21.40;71.70
2957;DHT22;1488;51.548;7.222;2023-04-24T01:55:57;21.50;71.80
2957;DHT22;1488;51.548;7.222;2023-04-24T01:58:25;21.50;71.80
2957;DHT22;1488;51.548;7.222;2023-04-24T02:00:53;21.50;71.80
2957;DHT22;1488;51.548;7.222;2023-04-24T02:03:22;21.40;71.70
2957;DHT22;1488;51.548;7.222;2023-04-24T02:05:49;21.40;71.70
2957;DHT22;1488;51.548;7.222;2023-04-24T02:08:16;21.40;71.90
2957;DHT22;1488;51.548;7.222;2023-04-24T02:10:43;21.40;72.80
2957;DHT22;1488;51.548;7.222;2023-04-24T02:13:10;21.40;71.80
2957;DHT22;1488;51.548;7.222;2023-04-24T02:15:38;21.40;71.90
2957;DHT22;1488;51.548;7.222;2023-04-24T02:18:05;21.40;71.90
2957;DHT22;1488;51.548;7.222;2023-04-24T02:20:32;21.40;71.80
2957;DHT22;1488;51.548;7.222;2023-04-24T02:23:00;21.40;71.90
2957;DHT22;1488;51.548;7.222;2023-04-24T02:25:27;21.40;71.90
2957;DHT22;1488;51.548;7.222;2023-04-24T02:27:54;21.40;71.90
2957;DHT22;1488;51.548;7.222;2023-04-24T02:30:21;21.40;71.90
2957;DHT22;1488;51.548;7.222;2023-04-24T02:32:49;21.40;71.90
2957;DHT22;1488;51.548;7.222;2023-04-24T02:35:16;21.40;71.90
2957;DHT22;1488;51.548;7.222;2023-04-24T02:37:43;21.40;71.90
2957;DHT22;1488;51.548;7.222;2023-04-24T02:40:10;21.40;71.80
2957;DHT22;1488;51.548;7.222;2023-04-24T02:42:37;21.40;71.80
2957;DHT22;1488;51.548;7.222;2023-04-24T02:45:04;21.40;71.90
2957;DHT22;1488;51.548;7.222;2023-04-24T02:47:31;21.40;71.80
2957;DHT22;1488;51.548;7.222;2023-04-24T02:50:00;21.50;71.80
2957;DHT22;1488;51.548;7.222;2023-04-24T02:52:27;21.40;71.90
2957;DHT22;1488;51.548;7.222;2023-04-24T02:54:53;21.30;71.70
2957;DHT22;1488;51.548;7.222;2023-04-24T02:57:20;21.30;71.70
2957;DHT22;1488;51.548;7.222;2023-04-24T02:59:47;21.30;71.70
2957;DHT22;1488;51.548;7.222;2023-04-24T03:02:14;21.30;71.70
2957;DHT22;1488;51.548;7.222;2023-04-24T03:04:40;21.30;71.80
2957;DHT22;1488;51.548;7.222;2023-04-24T03:07:12;21.30;71.80
2957;DHT22;1488;51.548;7.222;2023-04-24T03:09:39;21.50;72.00
2957;DHT22;1488;51.548;7.222;2023-04-24T03:12:07;21.30;71.70
2957;DHT22;1488;51.548;7.222;2023-04-24T03:14:34;21.30;71.70
2957;DHT22;1488;51.548;7.222;2023-04-24T03:17:01;21.30;71.70
2957;DHT22;1488;51.548;7.222;2023-04-24T03:19:28;21.30;71.70
2957;DHT22;1488;51.548;7.222;2023-04-24T03:21:55;21.30;71.70
2957;DHT22;1488;51.548;7.222;2023-04-24T03:24:23;21.30;71.70
2957;DHT22;1488;51.548;7.222;2023-04-24T03:26:50;21.30;71.70
2957;DHT22;1488;51.548;7.222;2023-04-24T03:29:17;21.30;71.70
2957;DHT22;1488;51.548;7.222;2023-04-24T03:31:44;21.30;71.70
2957;DHT22;1488;51.548;7.222;2023-04-24T03:34:10;21.30;71.70
2957;DHT22;1488;51.548;7.222;2023-04-24T03:36:38;21.30;71.70
2957;DHT22;1488;51.548;7.222;2023-04-24T03:39:05;21.30;71.70
2957;DHT22;1488;51.548;7.222;2023-04-24T03:41:34;21.30;71.80
2957;DHT22;1488;51.548;7.222;2023-04-24T03:44:00;21.30;71.80
2957;DHT22;1488;51.548;7.222;2023-04-24T03:46:27;21.30;71.60
2957;DHT22;1488;51.548;7.222;2023-04-24T03:48:54;21.30;71.60
2957;DHT22;1488;51.548;7.222;2023-04-24T03:51:21;21.30;71.60
2957;DHT22;1488;51.548;7.222;2023-04-24T03:53:48;21.30;71.60
2957;DHT22;1488;51.548;7.222;2023-04-24T03:56:15;21.20;71.60
2957;DHT22;1488;51.548;7.222;2023-04-24T03:58:44;21.30;71.70
2957;DHT22;1488;51.548;7.222;2023-04-24T04:01:10;21.40;71.90
2957;DHT22;1488;51.548;7.222;2023-04-24T04:03:38;21.30;71.70
2957;DHT22;1488;51.548;7.222;2023-04-24T04:06:05;21.20;71.60
2957;DHT22;1488;51.548;7.222;2023-04-24T04:08:32;21.20;71.60
2957;DHT22;1488;51.548;7.222;2023-04-24T04:11:00;21.20;71.60
2957;DHT22;1488;51.548;7.222;2023-04-24T04:13:26;21.30;71.80
2957;DHT22;1488;51.548;7.222;2023-04-24T04:15:55;21.20;71.60
2957;DHT22;1488;51.548;7.222;2023-04-24T04:18:22;21.20;71.60
2957;DHT22;1488;51.548;7.222;2023-04-24T04:20:48;21.20;71.70
2957;DHT22;1488;51.548;7.222;2023-04-24T04:23:15;21.20;71.50
2957;DHT22;1488;51.548;7.222;2023-04-24T04:25:43;21.20;71.60
2957;DHT22;1488;51.548;7.222;2023-04-24T04:28:10;21.20;71.60
2957;DHT22;1488;51.548;7.222;2023-04-24T04:30:37;21.20;71.60
2957;DHT22;1488;51.548;7.222;2023-04-24T04:33:05;21.20;71.60
2957;DHT22;1488;51.548;7.222;2023-04-24T04:35:32;21.20;71.60
2957;DHT22;1488;51.548;7.222;2023-04-24T04:37:58;21.20;71.60
2957;DHT22;1488;51.548;7.222;2023-04-24T04:40:26;21.20;71.60
2957;DHT22;1488;51.548;7.222;2023-04-24T04:42:53;21.20;71.60
2957;DHT22;1488;51.548;7.222;2023-04-24T04:45:20;21.20;71.60
2957;DHT22;1488;51.548;7.222;2023-04-24T04:47:47;21.30;71.80
2957;DHT22;1488;51.548;7.222;2023-04-24T04:50:15;21.20;71.70
2957;DHT22;1488;51.548;7.222;2023-04-24T04:52:44;21.20;71.70
2957;DHT22;1488;51.548;7.222;2023-04-24T04:55:11;21.20;71.60
2957;DHT22;1488;51.548;7.222;2023-04-24T04:57:38;21.20;71.70
2957;DHT22;1488;51.548;7.222;2023-04-24T05:00:06;21.20;71.60
2957;DHT22;1488;51.548;7.222;2023-04-24T05:02:35;21.20;71.60
2957;DHT22;1488;51.548;7.222;2023-04-24T05:05:03;21.20;71.60
2957;DHT22;1488;51.548;7.222;2023-04-24T05:07:31;21.20;71.50
2957;DHT22;1488;51.548;7.222;2023-04-24T05:09:58;21.20;71.60
2957;DHT22;1488;51.548;7.222;2023-04-24T05:12:25;21.20;71.60
2957;DHT22;1488;51.548;7.222;2023-04-24T05:14:52;21.20;71.60
2957;DHT22;1488;51.548;7.222;2023-04-24T05:17:19;21.20;71.60
2957;DHT22;1488;51.548;7.222;2023-04-24T05:19:46;21.20;71.50
2957;DHT22;1488;51.548;7.222;2023-04-24T05:22:13;21.20;71.60
2957;DHT22;1488;51.548;7.222;2023-04-24T05:24:41;21.20;71.60
2957;DHT22;1488;51.548;7.222;2023-04-24T05:27:08;21.20;72.40
2957;DHT22;1488;51.548;7.222;2023-04-24T05:29:35;21.20;71.50
2957;DHT22;1488;51.548;7.222;2023-04-24T05:32:02;21.20;71.40
2957;DHT22;1488;51.548;7.222;2023-04-24T05:34:29;21.20;71.60
2957;DHT22;1488;51.548;7.222;2023-04-24T05:36:56;21.20;71.40
2957;DHT22;1488;51.548;7.222;2023-04-24T05:39:23;21.40;71.60
2957;DHT22;1488;51.548;7.222;2023-04-24T05:41:51;21.20;71.60
2957;DHT22;1488;51.548;7.222;2023-04-24T05:44:18;21.20;71.40
2957;DHT22;1488;51.548;7.222;2023-04-24T05:46:45;21.20;71.40
2957;DHT22;1488;51.548;7.222;2023-04-24T05:49:12;21.20;71.60
2957;DHT22;1488;51.548;7.222;2023-04-24T05:51:39;21.20;71.60
2957;DHT22;1488;51.548;7.222;2023-04-24T05:54:06;21.20;71.70
2957;DHT22;1488;51.548;7.222;2023-04-24T05:56:33;21.40;72.00
2957;DHT22;1488;51.548;7.222;2023-04-24T05:59:02;21.30;71.50
2957;DHT22;1488;51.548;7.222;2023-04-24T06:01:29;21.30;71.20
2957;DHT22;1488;51.548;7.222;2023-04-24T06:03:57;21.30;71.70
2957;DHT22;1488;51.548;7.222;2023-04-24T06:06:24;21.30;71.70
2957;DHT22;1488;51.548;7.222;2023-04-24T06:08:51;21.30;71.50
2957;DHT22;1488;51.548;7.222;2023-04-24T06:11:18;21.30;71.90
2957;DHT22;1488;51.548;7.222;2023-04-24T06:13:45;21.30;72.00
2957;DHT22;1488;51.548;7.222;2023-04-24T06:16:13;21.30;72.10
2957;DHT22;1488;51.548;7.222;2023-04-24T06:18:40;21.20;72.10
2957;DHT22;1488;51.548;7.222;2023-04-24T06:21:07;21.30;72.30
2957;DHT22;1488;51.548;7.222;2023-04-24T06:23:34;21.20;72.20
2957;DHT22;1488;51.548;7.222;2023-04-24T06:26:01;21.20;72.30
2957;DHT22;1488;51.548;7.222;2023-04-24T06:28:28;21.30;73.20
2957;DHT22;1488;51.548;7.222;2023-04-24T06:30:55;21.20;72.30
2957;DHT22;1488;51.548;7.222;2023-04-24T06:33:24;21.30;72.30
2957;DHT22;1488;51.548;7.222;2023-04-24T06:35:50;21.30;72.50
2957;DHT22;1488;51.548;7.222;2023-04-24T06:38:17;21.30;72.80
2957;DHT22;1488;51.548;7.222;2023-04-24T06:40:44;21.30;72.40
2957;DHT22;1488;51.548;7.222;2023-04-24T06:43:11;21.30;72.30
2957;DHT22;1488;51.548;7.222;2023-04-24T06:45:38;21.30;72.40
2957;DHT22;1488;51.548;7.222;2023-04-24T06:48:05;21.30;72.60
2957;DHT22;1488;51.548;7.222;2023-04-24T06:50:33;21.30;72.50
2957;DHT22;1488;51.548;7.222;2023-04-24T06:53:00;21.30;72.40
2957;DHT22;1488;51.548;7.222;2023-04-24T06:55:27;21.30;72.40
2957;DHT22;1488;51.548;7.222;2023-04-24T06:57:54;21.30;72.40
2957;DHT22;1488;51.548;7.222;2023-04-24T07:00:21;21.30;72.40
2957;DHT22;1488;51.548;7.222;2023-04-24T07:02:49;21.30;72.40
2957;DHT22;1488;51.548;7.222;2023-04-24T07:05:16;21.30;72.60
2957;DHT22;1488;51.548;7.222;2023-04-24T07:07:47;21.30;72.30
2957;DHT22;1488;51.548;7.222;2023-04-24T07:10:15;21.40;72.30
2957;DHT22;1488;51.548;7.222;2023-04-24T07:12:43;21.30;71.10
2957;DHT22;1488;51.548;7.222;2023-04-24T07:15:10;21.30;71.40
2957;DHT22;1488;51.548;7.222;2023-04-24T07:17:37;21.30;72.30
2957;DHT22;1488;51.548;7.222;2023-04-24T07:20:15;21.30;72.30
2957;DHT22;1488;51.548;7.222;2023-04-24T07:22:47;21.30;71.90
2957;DHT22;1488;51.548;7.222;2023-04-24T07:25:14;21.30;72.00
2957;DHT22;1488;51.548;7.222;2023-04-24T07:27:41;21.30;71.20
2957;DHT22;1488;51.548;7.222;2023-04-24T07:30:09;21.30;70.40
2957;DHT22;1488;51.548;7.222;2023-04-24T07:32:36;21.20;70.00
2957;DHT22;1488;51.548;7.222;2023-04-24T07:35:03;21.20;70.00
2957;DHT22;1488;51.548;7.222;2023-04-24T07:37:30;21.20;70.40
2957;DHT22;1488;51.548;7.222;2023-04-24T07:39:58;21.30;71.20
2957;DHT22;1488;51.548;7.222;2023-04-24T07:42:25;21.20;71.40
2957;DHT22;1488;51.548;7.222;2023-04-24T07:45:15;21.20;71.50
2957;DHT22;1488;51.548;7.222;2023-04-24T07:47:42;21.20;72.30
2957;DHT22;1488;51.548;7.222;2023-04-24T07:50:11;21.20;72.40
2957;DHT22;1488;51.548;7.222;2023-04-24T07:52:39;21.30;71.90
2957;DHT22;1488;51.548;7.222;2023-04-24T07:55:07;21.20;72.40
2957;DHT22;1488;51.548;7.222;2023-04-24T07:57:34;21.20;72.60
2957;DHT22;1488;51.548;7.222;2023-04-24T08:00:02;21.30;72.20
2957;DHT22;1488;51.548;7.222;2023-04-24T08:02:29;21.30;72.10
2957;DHT22;1488;51.548;7.222;2023-04-24T08:04:56;21.30;72.30
2957;DHT22;1488;51.548;7.222;2023-04-24T08:07:49;21.30;71.80
2957;DHT22;1488;51.548;7.222;2023-04-24T08:13:37;21.30;72.30
2957;DHT22;1488;51.548;7.222;2023-04-24T08:16:06;21.30;72.30
2957;DHT22;1488;51.548;7.222;2023-04-24T08:18:33;21.30;72.30
2957;DHT22;1488;51.548;7.222;2023-04-24T08:21:01;21.30;72.30
2957;DHT22;1488;51.548;7.222;2023-04-24T08:23:28;21.30;71.90
2957;DHT22;1488;51.548;7.222;2023-04-24T08:25:55;21.20;71.20
2957;DHT22;1488;51.548;7.222;2023-04-24T08:28:25;21.20;71.30
2957;DHT22;1488;51.548;7.222;2023-04-24T08:30:54;21.30;70.60
2957;DHT22;1488;51.548;7.222;2023-04-24T08:33:21;21.30;70.40
2957;DHT22;1488;51.548;7.222;2023-04-24T08:35:48;21.20;69.60
2957;DHT22;1488;51.548;7.222;2023-04-24T08:38:15;21.20;69.10
2957;DHT22;1488;51.548;7.222;2023-04-24T08:40:42;21.20;69.70
2957;DHT22;1488;51.548;7.222;2023-04-24T08:43:12;21.30;68.80
2957;DHT22;1488;51.548;7.222;2023-04-24T08:45:40;21.10;68.10
2957;DHT22;1488;51.548;7.222;2023-04-24T08:48:09;21.20;68.40
2957;DHT22;1488;51.548;7.222;2023-04-24T08:50:37;21.20;70.10
2957;DHT22;1488;51.548;7.222;2023-04-24T08:53:04;21.10;70.30
2957;DHT22;1488;51.548;7.222;2023-04-24T08:55:31;21.20;70.70
2957;DHT22;1488;51.548;7.222;2023-04-24T08:57:59;21.20;70.90
2957;DHT22;1488;51.548;7.222;2023-04-24T09:00:28;21.20;71.10
2957;DHT22;1488;51.548;7.222;2023-04-24T09:02:56;21.20;71.10
2957;DHT22;1488;51.548;7.222;2023-04-24T09:05:24;21.20;71.30
2957;DHT22;1488;51.548;7.222;2023-04-24T09:07:54;21.20;71.30
2957;DHT22;1488;51.548;7.222;2023-04-24T09:10:22;21.20;71.40
2957;DHT22;1488;51.548;7.222;2023-04-24T09:12:50;21.20;71.60
2957;DHT22;1488;51.548;7.222;2023-04-24T09:15:17;21.20;71.80
2957;DHT22;1488;51.548;7.222;2023-04-24T09:17:46;21.20;71.80
2957;DHT22;1488;51.548;7.222;2023-04-24T09:20:13;21.20;71.80
2957;DHT22;1488;51.548;7.222;2023-04-24T09:22:41;21.20;71.90
2957;DHT22;1488;51.548;7.222;2023-04-24T09:25:09;21.20;72.00
2957;DHT22;1488;51.548;7.222;2023-04-24T09:27:41;21.20;71.90
2957;DHT22;1488;51.548;7.222;2023-04-24T09:30:10;21.20;72.10
2957;DHT22;1488;51.548;7.222;2023-04-24T09:32:37;21.20;72.00
2957;DHT22;1488;51.548;7.222;2023-04-24T09:35:08;21.20;72.10
2957;DHT22;1488;51.548;7.222;2023-04-24T09:37:36;21.20;72.10
2957;DHT22;1488;51.548;7.222;2023-04-24T09:46:00;21.20;72.10
2957;DHT22;1488;51.548;7.222;2023-04-24T09:48:31;21.30;72.40
2957;DHT22;1488;51.548;7.222;2023-04-24T09:50:59;21.20;72.40
2957;DHT22;1488;51.548;7.222;2023-04-24T09:53:27;21.20;72.40
2957;DHT22;1488;51.548;7.222;2023-04-24T09:55:54;21.20;72.50
2957;DHT22;1488;51.548;7.222;2023-04-24T09:58:25;21.20;72.50
2957;DHT22;1488;51.548;7.222;2023-04-24T10:00:53;21.20;72.70
2957;DHT22;1488;51.548;7.222;2023-04-24T10:03:24;21.20;72.60
2957;DHT22;1488;51.548;7.222;2023-04-24T10:05:52;21.20;72.70
2957;DHT22;1488;51.548;7.222;2023-04-24T10:08:20;21.30;72.70
2957;DHT22;1488;51.548;7.222;2023-04-24T10:10:47;21.20;72.70
2957;DHT22;1488;51.548;7.222;2023-04-24T10:13:15;21.20;72.70
2957;DHT22;1488;51.548;7.222;2023-04-24T10:15:42;21.20;72.70
2957;DHT22;1488;51.548;7.222;2023-04-24T10:18:09;21.10;72.50
2957;DHT22;1488;51.548;7.222;2023-04-24T10:20:39;21.10;72.90
2957;DHT22;1488;51.548;7.222;2023-04-24T10:23:06;21.20;72.80
2957;DHT22;1488;51.548;7.222;2023-04-24T10:25:34;21.20;72.80
2957;DHT22;1488;51.548;7.222;2023-04-24T10:28:03;21.10;72.70
2957;DHT22;1488;51.548;7.222;2023-04-24T10:30:31;21.10;72.80
2957;DHT22;1488;51.548;7.222;2023-04-24T10:33:00;21.10;72.60
2957;DHT22;1488;51.548;7.222;2023-04-24T10:35:30;21.10;72.70
2957;DHT22;1488;51.548;7.222;2023-04-24T10:38:02;21.20;72.80
2957;DHT22;1488;51.548;7.222;2023-04-24T10:40:31;21.10;72.60
2957;DHT22;1488;51.548;7.222;2023-04-24T10:42:59;21.10;72.60
2957;DHT22;1488;51.548;7.222;2023-04-24T10:45:28;21.10;72.70
2957;DHT22;1488;51.548;7.222;2023-04-24T10:47:59;21.20;72.80
2957;DHT22;1488;51.548;7.222;2023-04-24T10:50:28;21.10;72.50
2957;DHT22;1488;51.548;7.222;2023-04-24T10:53:07;21.30;72.60
2957;DHT22;1488;51.548;7.222;2023-04-24T10:55:46;21.20;72.50
2957;DHT22;1488;51.548;7.222;2023-04-24T10:58:13;21.20;72.50
2957;DHT22;1488;51.548;7.222;2023-04-24T11:00:42;21.20;72.80
2957;DHT22;1488;51.548;7.222;2023-04-24T11:03:24;21.20;72.80
2957;DHT22;1488;51.548;7.222;2023-04-24T11:06:02;21.20;72.80
2957;DHT22;1488;51.548;7.222;2023-04-24T11:08:36;21.20;72.80
2957;DHT22;1488;51.548;7.222;2023-04-24T11:11:08;21.20;72.90
2957;DHT22;1488;51.548;7.222;2023-04-24T11:14:04;21.10;73.00
2957;DHT22;1488;51.548;7.222;2023-04-24T11:16:34;21.20;72.50
2957;DHT22;1488;51.548;7.222;2023-04-24T11:19:05;21.20;72.60
2957;DHT22;1488;51.548;7.222;2023-04-24T11:21:39;21.10;72.70
2957;DHT22;1488;51.548;7.222;2023-04-24T11:24:38;21.10;72.90
2957;DHT22;1488;51.548;7.222;2023-04-24T11:27:09;21.20;72.30
2957;DHT22;1488;51.548;7.222;2023-04-24T11:29:41;21.20;72.90
2957;DHT22;1488;51.548;7.222;2023-04-24T11:32:24;21.10;72.60
2957;DHT22;1488;51.548;7.222;2023-04-24T11:34:53;21.20;72.80
2957;DHT22;1488;51.548;7.222;2023-04-24T11:37:21;21.20;72.80
2957;DHT22;1488;51.548;7.222;2023-04-24T11:39:52;21.20;72.50
2957;DHT22;1488;51.548;7.222;2023-04-24T11:42:21;21.20;72.70
2957;DHT22;1488;51.548;7.222;2023-04-24T11:44:49;21.30;72.90
2957;DHT22;1488;51.548;7.222;2023-04-24T11:47:16;21.20;72.60
2957;DHT22;1488;51.548;7.222;2023-04-24T11:49:43;21.20;72.60
2957;DHT22;1488;51.548;7.222;2023-04-24T11:52:10;21.20;72.50
2957;DHT22;1488;51.548;7.222;2023-04-24T11:54:37;21.20;72.40
2957;DHT22;1488;51.548;7.222;2023-04-24T11:57:09;21.20;72.60
2957;DHT22;1488;51.548;7.222;2023-04-24T11:59:36;21.20;72.60
2957;DHT22;1488;51.548;7.222;2023-04-24T12:02:03;21.20;72.90
2957;DHT22;1488;51.548;7.222;2023-04-24T12:04:39;21.20;72.20
2957;DHT22;1488;51.548;7.222;2023-04-24T12:07:10;21.20;72.80
2957;DHT22;1488;51.548;7.222;2023-04-24T12:09:45;21.20;73.00
2957;DHT22;1488;51.548;7.222;2023-04-24T12:12:15;21.20;74.00
2957;DHT22;1488;51.548;7.222;2023-04-24T12:14:48;21.20;73.20
2957;DHT22;1488;51.548;7.222;2023-04-24T12:17:16;21.20;73.20
2957;DHT22;1488;51.548;7.222;2023-04-24T12:19:47;21.20;73.20
2957;DHT22;1488;51.548;7.222;2023-04-24T12:22:14;21.40;73.20
2957;DHT22;1488;51.548;7.222;2023-04-24T12:24:59;21.30;72.80
2957;DHT22;1488;51.548;7.222;2023-04-24T12:27:29;21.20;72.60
2957;DHT22;1488;51.548;7.222;2023-04-24T12:29:58;21.30;72.70
2957;DHT22;1488;51.548;7.222;2023-04-24T12:32:25;21.30;72.50
2957;DHT22;1488;51.548;7.222;2023-04-24T12:34:53;21.30;72.30
2957;DHT22;1488;51.548;7.222;2023-04-24T12:37:20;21.30;72.30
2957;DHT22;1488;51.548;7.222;2023-04-24T12:40:02;21.30;72.40
2957;DHT22;1488;51.548;7.222;2023-04-24T12:42:30;21.30;71.70
2957;DHT22;1488;51.548;7.222;2023-04-24T12:44:58;21.30;71.20
2957;DHT22;1488;51.548;7.222;2023-04-24T12:47:26;21.20;71.30
2957;DHT22;1488;51.548;7.222;2023-04-24T12:49:53;21.30;72.50
2957;DHT22;1488;51.548;7.222;2023-04-24T12:52:21;21.20;72.60
2957;DHT22;1488;51.548;7.222;2023-04-24T12:54:52;21.20;72.30
2957;DHT22;1488;51.548;7.222;2023-04-24T12:57:19;21.30;72.50
2957;DHT22;1488;51.548;7.222;2023-04-24T12:59:47;21.30;72.70
2957;DHT22;1488;51.548;7.222;2023-04-24T13:02:14;21.30;72.80
2957;DHT22;1488;51.548;7.222;2023-04-24T13:04:44;21.30;72.40
2957;DHT22;1488;51.548;7.222;2023-04-24T13:07:11;21.30;72.40
2957;DHT22;1488;51.548;7.222;2023-04-24T13:09:39;21.30;72.00
2957;DHT22;1488;51.548;7.222;2023-04-24T13:12:14;21.30;71.70
2957;DHT22;1488;51.548;7.222;2023-04-24T13:14:41;21.30;71.80
2957;DHT22;1488;51.548;7.222;2023-04-24T13:17:10;21.30;72.00
2957;DHT22;1488;51.548;7.222;2023-04-24T13:19:39;21.30;72.40
2957;DHT22;1488;51.548;7.222;2023-04-24T13:22:08;21.30;72.60
2957;DHT22;1488;51.548;7.222;2023-04-24T13:24:35;21.20;72.60
2957;DHT22;1488;51.548;7.222;2023-04-24T13:27:03;21.30;72.80
2957;DHT22;1488;51.548;7.222;2023-04-24T13:29:30;21.30;72.80
2957;DHT22;1488;51.548;7.222;2023-04-24T13:31:57;21.30;72.80
2957;DHT22;1488;51.548;7.222;2023-04-24T13:34:29;21.30;72.90
2957;DHT22;1488;51.548;7.222;2023-04-24T13:36:57;21.30;73.10
2957;DHT22;1488;51.548;7.222;2023-04-24T13:39:25;21.20;73.00
2957;DHT22;1488;51.548;7.222;2023-04-24T13:41:53;21.20;72.90
2957;DHT22;1488;51.548;7.222;2023-04-24T13:44:20;21.20;72.90
2957;DHT22;1488;51.548;7.222;2023-04-24T13:46:50;21.20;72.90
2957;DHT22;1488;51.548;7.222;2023-04-24T13:49:19;21.20;72.80
2957;DHT22;1488;51.548;7.222;2023-04-24T13:51:50;21.20;73.00
2957;DHT22;1488;51.548;7.222;2023-04-24T13:54:20;21.20;72.90
2957;DHT22;1488;51.548;7.222;2023-04-24T13:56:48;21.20;72.90
2957;DHT22;1488;51.548;7.222;2023-04-24T13:59:15;21.20;72.90
2957;DHT22;1488;51.548;7.222;2023-04-24T14:01:42;21.20;72.90
2957;DHT22;1488;51.548;7.222;2023-04-24T14:04:10;21.20;73.80
2957;DHT22;1488;51.548;7.222;2023-04-24T14:06:37;21.20;72.90
2957;DHT22;1488;51.548;7.222;2023-04-24T14:09:06;21.20;73.00
2957;DHT22;1488;51.548;7.222;2023-04-24T14:11:34;21.20;72.80
2957;DHT22;1488;51.548;7.222;2023-04-24T14:14:01;21.20;72.70
2957;DHT22;1488;51.548;7.222;2023-04-24T14:16:28;21.20;72.60
2957;DHT22;1488;51.548;7.222;2023-04-24T14:18:56;21.20;72.60
2957;DHT22;1488;51.548;7.222;2023-04-24T14:21:22;21.20;72.60
2957;DHT22;1488;51.548;7.222;2023-04-24T14:23:49;21.20;72.50
2957;DHT22;1488;51.548;7.222;2023-04-24T14:26:19;21.30;72.50
2957;DHT22;1488;51.548;7.222;2023-04-24T14:28:47;21.30;73.20
2957;DHT22;1488;51.548;7.222;2023-04-24T14:31:14;21.30;72.30
2957;DHT22;1488;51.548;7.222;2023-04-24T14:33:41;21.30;72.10
2957;DHT22;1488;51.548;7.222;2023-04-24T14:36:08;21.30;71.70
2957;DHT22;1488;51.548;7.222;2023-04-24T14:38:35;21.30;71.90
2957;DHT22;1488;51.548;7.222;2023-04-24T14:41:02;21.30;72.20
2957;DHT22;1488;51.548;7.222;2023-04-24T14:43:35;21.30;72.60
2957;DHT22;1488;51.548;7.222;2023-04-24T14:46:04;21.20;72.70
2957;DHT22;1488;51.548;7.222;2023-04-24T14:48:31;21.20;72.80
2957;DHT22;1488;51.548;7.222;2023-04-24T14:50:58;21.20;72.90
2957;DHT22;1488;51.548;7.222;2023-04-24T14:53:25;21.20;72.80
2957;DHT22;1488;51.548;7.222;2023-04-24T14:55:53;21.20;73.00
2957;DHT22;1488;51.548;7.222;2023-04-24T14:58:20;21.20;73.00
2957;DHT22;1488;51.548;7.222;2023-04-24T15:00:51;21.20;73.10
2957;DHT22;1488;51.548;7.222;2023-04-24T15:03:27;21.20;73.00
2957;DHT22;1488;51.548;7.222;2023-04-24T15:05:54;21.20;73.00
2957;DHT22;1488;51.548;7.222;2023-04-24T15:08:22;21.20;72.90
2957;DHT22;1488;51.548;7.222;2023-04-24T15:10:49;21.20;73.00
2957;DHT22;1488;51.548;7.222;2023-04-24T15:13:16;21.20;72.80
2957;DHT22;1488;51.548;7.222;2023-04-24T15:15:43;21.20;73.80
2957;DHT22;1488;51.548;7.222;2023-04-24T15:18:12;21.20;72.90
2957;DHT22;1488;51.548;7.222;2023-04-24T15:20:38;21.20;73.10
2957;DHT22;1488;51.548;7.222;2023-04-24T15:23:07;21.20;73.20
2957;DHT22;1488;51.548;7.222;2023-04-24T15:25:35;21.20;73.00
2957;DHT22;1488;51.548;7.222;2023-04-24T15:28:02;21.20;72.30
2957;DHT22;1488;51.548;7.222;2023-04-24T15:30:29;21.20;72.50
2957;DHT22;1488;51.548;7.222;2023-04-24T15:32:56;21.20;72.40
2957;DHT22;1488;51.548;7.222;2023-04-24T15:35:24;21.20;72.60
2957;DHT22;1488;51.548;7.222;2023-04-24T15:37:51;21.20;72.70
2957;DHT22;1488;51.548;7.222;2023-04-24T15:40:18;21.40;72.60
2957;DHT22;1488;51.548;7.222;2023-04-24T15:42:45;21.20;72.30
2957;DHT22;1488;51.548;7.222;2023-04-24T15:45:12;21.30;72.60
2957;DHT22;1488;51.548;7.222;2023-04-24T15:47:39;21.30;72.70
2957;DHT22;1488;51.548;7.222;2023-04-24T15:50:07;21.30;72.70
2957;DHT22;1488;51.548;7.222;2023-04-24T15:52:38;21.30;72.70
2957;DHT22;1488;51.548;7.222;2023-04-24T15:55:05;21.20;72.60
2957;DHT22;1488;51.548;7.222;2023-04-24T15:57:32;21.20;72.60
2957;DHT22;1488;51.548;7.222;2023-04-24T15:59:59;21.20;72.50
2957;DHT22;1488;51.548;7.222;2023-04-24T16:02:26;21.20;72.40
2957;DHT22;1488;51.548;7.222;2023-04-24T16:04:53;21.20;72.40
2957;DHT22;1488;51.548;7.222;2023-04-24T16:14:05;21.20;72.60
2957;DHT22;1488;51.548;7.222;2023-04-24T16:16:33;21.20;72.60
2957;DHT22;1488;51.548;7.222;2023-04-24T16:18:59;21.20;72.50
2957;DHT22;1488;51.548;7.222;2023-04-24T16:21:26;21.20;72.50
2957;DHT22;1488;51.548;7.222;2023-04-24T16:23:53;21.30;72.60